.
WxDataArchive / Data Records for 2016-02-08
2016-02-07 February 2016 2016-02-09

Data Records for Monday, 08 February 2016

Time	Temp	Chill	HIndex	Humid	Dewpt	 Wind 	HiWind	WindDir	Rain 	Barom
-----	----	-----	------	-----	-----	------	------	-------	-----	-----
00:00	37.6	37.6	37.6	79	31.7	0	1	270	0.00	29.707 
00:05	37.5	37.5	37.5	79	31.6	0	0	---	0.00	29.707 
00:10	37.5	37.5	37.5	79	31.6	0	0	---	0.00	29.707 
00:15	37.3	37.3	37.3	80	31.7	0	0	---	0.00	29.704 
00:20	37.2	37.2	37.2	80	31.6	0	0	---	0.00	29.704 
00:25	37.2	37.2	37.2	80	31.6	0	1	270	0.00	29.704 
00:30	37.2	37.2	37.2	80	31.6	0	0	---	0.00	29.703 
00:35	37.2	37.2	37.2	80	31.6	0	1	270	0.00	29.703 
00:40	37.0	37.0	37.0	80	31.4	0	1	270	0.00	29.703 
00:45	37.0	37.0	37.0	81	31.7	0	1	270	0.00	29.698 
00:50	36.9	36.9	36.9	81	31.6	0	1	270	0.00	29.698 
00:55	36.8	36.8	36.8	81	31.5	0	1	270	0.00	29.698 
01:00	36.6	36.6	36.6	81	31.3	0	1	270	0.00	29.696 
01:05	36.6	36.6	36.6	81	31.3	0	1	270	0.00	29.696 
01:10	36.5	36.5	36.5	81	31.2	0	2	270	0.00	29.696 
01:15	36.5	36.5	36.5	81	31.2	0	1	270	0.00	29.691 
01:20	36.5	36.5	36.5	81	31.2	0	1	270	0.00	29.691 
01:25	36.3	36.3	36.3	81	31.0	0	1	270	0.00	29.691 
01:30	36.3	36.3	36.3	81	31.0	0	1	270	0.00	29.690 
01:35	36.3	36.3	36.3	81	31.0	0	1	270	0.00	29.690 
01:40	36.3	36.3	36.3	81	31.0	0	1	270	0.00	29.690 
01:45	36.2	36.2	36.2	81	30.9	0	1	270	0.00	29.689 
01:50	36.2	36.2	36.2	82	31.2	0	1	270	0.00	29.689 
01:55	36.2	36.2	36.2	82	31.2	0	0	---	0.00	29.689 
02:00	36.2	36.2	36.2	82	31.2	0	1	270	0.00	29.676 
02:05	36.0	36.0	36.0	82	31.0	0	1	270	0.00	29.676 
02:10	36.0	36.0	36.0	82	31.0	0	1	270	0.00	29.676 
02:15	36.0	36.0	36.0	81	30.7	0	0	---	0.00	29.662 
02:20	35.9	35.9	35.9	81	30.6	0	1	270	0.00	29.662 
02:25	35.9	35.9	35.9	81	30.6	0	0	---	0.00	29.662 
02:30	35.8	35.8	35.8	82	30.9	0	0	---	0.00	29.660 
02:35	35.6	35.6	35.6	82	30.7	0	0	---	0.00	29.660 
02:40	35.5	35.5	35.5	82	30.6	0	0	---	0.00	29.660 
02:45	35.3	35.3	35.3	82	30.4	0	1	270	0.00	29.658 
02:50	35.3	35.3	35.3	82	30.4	0	0	---	0.00	29.658 
02:55	35.2	35.2	35.2	82	30.3	0	0	---	0.00	29.658 
03:00	35.0	35.0	35.0	82	30.1	0	0	---	0.00	29.652 
03:05	34.9	34.9	34.9	82	30.0	0	0	---	0.00	29.652 
03:10	34.7	34.7	34.7	82	29.8	0	0	---	0.00	29.652 
03:15	34.4	34.4	34.4	82	29.5	0	0	---	0.00	29.647 
03:20	34.3	34.3	34.3	83	29.7	0	0	---	0.00	29.647 
03:25	34.1	34.1	34.1	83	29.5	0	0	---	0.00	29.647 
03:30	34.0	34.0	34.0	83	29.4	0	0	---	0.00	29.646 
03:35	33.8	33.8	33.8	83	29.2	0	0	---	0.00	29.646 
03:40	33.7	33.7	33.7	83	29.1	0	0	---	0.00	29.646 
03:45	33.5	33.5	33.5	84	29.2	0	0	---	0.00	29.640 
03:50	33.4	33.4	33.4	84	29.1	0	0	---	0.00	29.640 
03:55	33.2	33.2	33.2	84	28.9	0	0	---	0.00	29.640 
04:00	32.9	32.9	32.9	84	28.6	0	0	---	0.00	29.635 
04:05	32.7	32.7	32.7	84	28.4	0	0	---	0.00	29.635 
04:10	32.5	32.5	32.5	84	28.2	0	0	---	0.00	29.635 
04:15	32.2	32.2	32.2	84	27.9	0	0	---	0.00	29.631 
04:20	32.1	32.1	32.1	84	27.8	0	0	---	0.00	29.631 
04:25	31.9	31.9	31.9	85	27.9	0	0	---	0.00	29.631 
04:30	31.8	31.8	31.8	85	27.8	0	0	---	0.00	29.629 
04:35	31.8	31.8	31.8	85	27.8	0	0	---	0.00	29.629 
04:40	31.6	31.6	31.6	85	27.6	0	0	---	0.00	29.629 
04:45	31.5	31.5	31.5	85	27.5	0	0	---	0.00	29.627 
04:50	31.3	31.3	31.3	85	27.3	0	0	---	0.00	29.627 
04:55	31.3	31.3	31.3	86	27.6	0	0	---	0.00	29.627 
05:00	31.3	31.3	31.3	86	27.6	0	0	---	0.00	29.628 
05:05	31.5	31.5	31.5	87	28.1	0	1	270	0.00	29.628 
05:10	31.8	31.8	31.8	87	28.4	0	0	---	0.00	29.628 
05:15	31.9	31.9	31.9	87	28.5	0	0	---	0.00	29.628 
05:20	31.9	31.9	31.9	87	28.5	0	0	---	0.00	29.628 
05:25	31.9	31.9	31.9	87	28.5	0	0	---	0.00	29.628 
05:30	31.9	31.9	31.9	87	28.5	0	0	---	0.00	29.627 
05:35	31.8	31.8	31.8	87	28.4	0	0	---	0.00	29.627 
05:40	31.6	31.6	31.6	87	28.2	0	0	---	0.00	29.627 
05:45	31.5	31.5	31.5	87	28.1	0	0	---	0.00	29.626 
05:50	31.3	31.3	31.3	86	27.6	0	0	---	0.00	29.626 
05:55	31.0	31.0	31.0	87	27.6	0	0	---	0.00	29.626 
06:00	30.7	30.7	30.7	86	27.0	0	0	---	0.00	29.632 
06:05	30.4	30.4	30.4	86	26.7	0	0	---	0.00	29.632 
06:10	30.3	30.3	30.3	87	26.9	0	0	---	0.00	29.632 
06:15	30.1	30.1	30.1	87	26.7	0	0	---	0.00	29.635 
06:20	30.1	30.1	30.1	87	26.7	0	0	---	0.00	29.635 
06:25	30.1	30.1	30.1	87	26.7	0	0	---	0.00	29.635 
06:30	30.1	30.1	30.1	88	27.0	0	0	---	0.00	29.635 
06:35	30.1	30.1	30.1	88	27.0	0	0	---	0.00	29.635 
06:40	30.4	30.4	30.4	88	27.3	0	0	---	0.00	29.635 
06:45	30.4	30.4	30.4	88	27.3	0	0	---	0.00	29.634 
06:50	30.6	30.6	30.6	88	27.5	0	0	---	0.00	29.634 
06:55	30.7	30.7	30.7	89	27.8	0	0	---	0.00	29.634 
07:00	30.9	30.9	30.9	89	28.0	0	0	---	0.00	29.631 
07:05	31.0	31.0	31.0	89	28.1	0	0	---	0.00	29.631 
07:10	31.3	31.3	31.3	89	28.4	0	0	---	0.00	29.631 
07:15	31.5	31.5	31.5	89	28.6	0	0	---	0.00	29.631 
07:20	31.6	31.6	31.6	89	28.7	0	0	---	0.00	29.631 
07:25	31.8	31.8	31.8	89	28.9	0	0	---	0.00	29.631 
07:30	31.9	31.9	31.9	89	29.0	0	0	---	0.00	29.627 
07:35	31.9	31.9	31.9	89	29.0	0	0	---	0.00	29.627 
07:40	32.1	32.1	32.1	89	29.2	0	0	---	0.00	29.627 
07:45	32.1	32.1	32.1	88	29.0	0	0	---	0.00	29.627 
07:50	32.2	32.2	32.2	88	29.1	0	0	---	0.00	29.627 
07:55	32.4	32.4	32.4	88	29.3	0	1	270	0.00	29.627 
08:00	32.5	32.5	32.5	88	29.3	0	1	270	0.00	29.621 
08:05	32.5	32.5	32.5	88	29.3	0	1	270	0.00	29.621 
08:10	32.7	32.7	32.7	88	29.5	0	1	270	0.00	29.621 
08:15	32.7	32.7	32.7	88	29.5	0	0	---	0.00	29.623 
08:20	32.8	32.8	32.8	87	29.4	0	1	270	0.00	29.623 
08:25	32.8	32.8	32.8	87	29.4	0	1	270	0.00	29.623 
08:30	32.9	32.9	32.9	87	29.5	0	1	270	0.00	29.624 
08:35	32.9	32.9	32.9	87	29.5	0	0	---	0.00	29.624 
08:40	33.1	33.1	33.1	86	29.4	0	0	---	0.00	29.624 
08:45	33.2	33.2	33.2	86	29.5	0	1	270	0.00	29.620 
08:50	33.4	33.4	33.4	86	29.7	0	1	270	0.00	29.620 
08:55	33.5	33.5	33.5	85	29.5	0	0	---	0.00	29.620 
09:00	33.7	33.7	33.7	85	29.7	0	1	270	0.00	29.618 
09:05	34.1	34.1	34.1	85	30.1	0	1	270	0.00	29.618 
09:10	34.7	34.7	34.7	84	30.4	0	1	270	0.00	29.618 
09:15	35.0	35.0	35.0	83	30.4	0	1	270	0.00	29.618 
09:20	35.2	35.2	35.2	82	30.3	0	1	270	0.00	29.618 
09:25	35.5	35.5	35.5	81	30.3	0	1	270	0.00	29.618 
09:30	35.5	35.5	35.5	80	30.0	0	1	270	0.00	29.617 
09:35	35.6	35.6	35.6	79	29.7	0	1	270	0.00	29.617 
09:40	35.8	35.8	35.8	78	29.6	0	2	270	0.00	29.617 
09:45	35.8	35.8	35.8	77	29.3	1	2	270	0.00	29.617 
09:50	35.9	35.9	35.9	77	29.4	1	2	270	0.00	29.617 
09:55	36.0	36.0	36.0	77	29.5	0	1	270	0.00	29.617 
10:00	36.0	36.0	36.0	76	29.2	0	2	270	0.00	29.618 
10:05	35.9	35.9	35.9	76	29.1	1	2	270	0.00	29.618 
10:10	35.9	35.9	35.9	76	29.1	1	3	270	0.00	29.618 
10:15	35.8	35.8	35.8	76	29.0	1	2	270	0.00	29.622 
10:20	35.5	35.5	35.5	76	28.7	0	1	270	0.00	29.622 
10:25	35.5	35.5	35.5	77	29.0	1	3	270	0.00	29.622 
10:30	35.3	35.3	35.3	77	28.8	0	2	270	0.00	29.620 
10:35	35.3	35.3	35.3	77	28.8	1	2	270	0.00	29.620 
10:40	35.3	35.3	35.3	78	29.1	0	2	270	0.00	29.620 
10:45	35.5	35.5	35.5	77	29.0	1	3	270	0.00	29.620 
10:50	35.6	35.6	35.6	77	29.1	1	4	292	0.00	29.620 
10:55	35.9	35.9	35.9	77	29.4	1	2	292	0.00	29.620 
11:00	36.0	36.0	36.0	77	29.5	0	2	292	0.00	29.620 
11:05	36.2	36.2	36.2	77	29.7	1	2	292	0.00	29.620 
11:10	36.5	36.5	36.5	77	30.0	1	4	292	0.00	29.620 
11:15	36.8	36.8	36.8	76	30.0	2	3	292	0.00	29.620 
11:20	36.9	36.9	36.9	75	29.7	1	3	292	0.00	29.620 
11:25	37.2	37.2	37.2	75	30.0	1	3	292	0.00	29.620 
11:30	37.6	37.6	37.6	73	29.7	1	3	292	0.00	29.617 
11:35	37.8	37.8	37.8	72	29.6	1	3	292	0.00	29.617 
11:40	37.9	37.9	37.9	72	29.7	1	2	292	0.00	29.617 
11:45	37.9	37.9	37.9	72	29.7	1	2	292	0.00	29.615 
11:50	37.8	37.8	37.8	72	29.6	1	3	292	0.00	29.615 
11:55	37.5	37.5	37.5	72	29.3	1	4	292	0.00	29.615 
12:00	37.3	37.3	37.3	72	29.1	1	2	292	0.00	29.609 
12:05	37.5	37.5	37.5	72	29.3	1	4	292	0.00	29.609 
12:10	38.0	38.0	38.0	73	30.1	2	4	292	0.00	29.609 
12:15	38.5	38.5	38.5	71	29.9	1	3	292	0.00	29.603 
12:20	38.9	38.9	38.9	69	29.6	2	4	292	0.00	29.603 
12:25	38.8	38.8	38.8	69	29.5	1	3	292	0.00	29.603 
12:30	38.6	38.6	38.6	68	29.0	1	4	270	0.00	29.601 
12:35	38.5	38.5	38.5	69	29.2	1	2	270	0.00	29.601 
12:40	38.5	38.5	38.5	69	29.2	1	4	270	0.00	29.601 
12:45	38.2	38.2	38.2	69	28.9	1	3	270	0.00	29.601 
12:50	37.8	37.8	37.8	69	28.6	1	3	270	0.00	29.601 
12:55	37.5	37.5	37.5	70	28.6	2	5	292	0.00	29.601 
13:00	37.3	37.3	37.3	71	28.8	1	3	292	0.00	29.597 
13:05	37.2	37.2	37.2	71	28.7	1	3	292	0.00	29.597 
13:10	37.2	37.2	37.2	70	28.3	1	3	292	0.00	29.597 
13:15	37.2	37.2	37.2	69	28.0	1	3	270	0.00	29.592 
13:20	37.2	37.2	37.2	68	27.6	1	3	270	0.00	29.592 
13:25	37.2	37.2	37.2	69	28.0	1	3	270	0.00	29.592 
13:30	37.2	37.2	37.2	69	28.0	1	4	270	0.00	29.590 
13:35	37.3	37.3	37.3	69	28.1	1	3	315	0.00	29.590 
13:40	37.8	37.8	37.8	67	27.8	1	3	292	0.00	29.590 
13:45	38.0	38.0	38.0	66	27.7	0	2	292	0.00	29.588 
13:50	38.5	38.5	38.5	66	28.1	1	3	292	0.00	29.588 
13:55	38.5	38.5	38.5	64	27.4	1	3	292	0.00	29.588 
14:00	38.0	38.0	38.0	64	26.9	2	4	315	0.00	29.589 
14:05	37.8	37.8	37.8	65	27.1	1	2	315	0.00	29.589 
14:10	37.6	37.6	37.6	66	27.3	0	3	315	0.00	29.589 
14:15	37.6	37.6	37.6	66	27.3	0	2	315	0.00	29.591 
14:20	37.5	37.5	37.5	65	26.8	1	2	315	0.00	29.591 
14:25	37.5	37.5	37.5	65	26.8	1	3	315	0.00	29.591 
14:30	37.8	37.8	37.8	66	27.5	1	4	292	0.00	29.590 
14:35	37.8	37.8	37.8	65	27.1	1	2	292	0.00	29.590 
14:40	37.8	37.8	37.8	64	26.7	1	2	292	0.00	29.590 
14:45	38.0	38.0	38.0	65	27.3	1	2	292	0.00	29.589 
14:50	38.3	38.3	38.3	64	27.2	1	3	292	0.00	29.589 
14:55	38.5	38.5	38.5	64	27.4	0	2	292	0.00	29.589 
15:00	38.8	38.8	38.8	62	26.9	1	3	292	0.00	29.588 
15:05	38.8	38.8	38.8	62	26.9	0	3	292	0.00	29.588 
15:10	38.6	38.6	38.6	62	26.7	1	3	292	0.00	29.588 
15:15	38.5	38.5	38.5	62	26.6	0	3	292	0.00	29.591 
15:20	38.3	38.3	38.3	63	26.8	0	2	292	0.00	29.591 
15:25	38.2	38.2	38.2	62	26.3	1	3	292	0.00	29.591 
15:30	38.0	38.0	38.0	62	26.2	1	4	270	0.00	29.600 
15:35	38.0	38.0	38.0	62	26.2	1	4	315	0.00	29.600 
15:40	37.9	37.9	37.9	61	25.7	1	3	315	0.00	29.600 
15:45	37.8	37.8	37.8	61	25.6	1	3	270	0.00	29.605 
15:50	37.8	37.8	37.8	62	26.0	1	3	270	0.00	29.605 
15:55	37.6	37.6	37.6	61	25.4	1	4	270	0.00	29.605 
16:00	37.8	37.8	37.8	61	25.6	1	3	292	0.00	29.607 
16:05	37.8	37.8	37.8	61	25.6	1	2	292	0.00	29.607 
16:10	37.9	37.9	37.9	62	26.1	1	3	270	0.00	29.607 
16:15	37.8	37.8	37.8	61	25.6	1	3	270	0.00	29.610 
16:20	37.6	37.6	37.6	60	25.0	1	3	270	0.00	29.610 
16:25	37.6	37.6	37.6	60	25.0	1	3	270	0.00	29.610 
16:30	37.5	37.5	37.5	60	24.9	1	3	270	0.00	29.617 
16:35	37.3	37.3	37.3	60	24.7	1	3	270	0.00	29.617 
16:40	37.5	37.5	37.5	63	26.1	0	3	270	0.00	29.617 
16:45	37.3	37.3	37.3	68	27.7	2	6	270	0.00	29.625 
16:50	36.6	36.6	36.6	72	28.4	2	5	292	0.00	29.625 
16:55	35.9	35.9	35.9	76	29.1	1	3	292	0.00	29.625 
17:00	35.5	35.5	35.5	77	29.0	1	3	292	0.00	29.628 
17:05	35.3	35.3	35.3	78	29.1	0	3	292	0.00	29.628 
17:10	35.3	35.3	35.3	78	29.1	0	2	292	0.00	29.628 
17:15	35.3	35.3	35.3	78	29.1	1	3	292	0.00	29.632 
17:20	35.2	35.2	35.2	78	29.0	2	5	315	0.00	29.632 
17:25	35.2	35.2	35.2	78	29.0	1	4	315	0.00	29.632 
17:30	35.0	35.0	35.0	78	28.8	2	4	315	0.00	29.637 
17:35	34.7	34.7	34.7	79	28.9	2	6	270	0.00	29.637 
17:40	34.4	34.4	34.4	80	28.9	1	4	270	0.00	29.637 
17:45	34.1	34.1	34.1	80	28.6	2	4	270	0.00	29.643 
17:50	33.7	33.7	33.7	81	28.5	3	6	270	0.00	29.643 
17:55	33.4	33.4	33.4	82	28.5	1	4	270	0.00	29.643 
18:00	33.2	33.2	33.2	83	28.6	1	3	315	0.00	29.651 
18:05	33.1	33.1	33.1	84	28.8	1	5	270	0.00	29.651 
18:10	32.9	32.9	32.9	84	28.6	2	3	270	0.00	29.651 
18:15	32.7	32.7	32.7	84	28.4	2	3	270	0.00	29.658 
18:20	32.5	32.5	32.5	85	28.5	2	3	270	0.00	29.658 
18:25	32.4	32.4	32.4	85	28.4	2	6	270	0.00	29.658 
18:30	32.2	32.2	32.2	86	28.5	2	5	292	0.00	29.662 
18:35	32.2	32.2	32.2	86	28.5	2	5	315	0.00	29.662 
18:40	32.1	32.1	32.1	86	28.4	2	5	315	0.00	29.662 
18:45	31.9	31.9	31.9	86	28.2	2	5	270	0.00	29.664 
18:50	31.8	31.8	31.8	86	28.1	2	4	270	0.00	29.664 
18:55	31.8	31.8	31.8	86	28.1	2	6	270	0.00	29.664 
19:00	31.6	31.6	31.6	86	27.9	3	5	270	0.00	29.667 
19:05	31.5	31.5	31.5	86	27.8	2	4	292	0.00	29.667 
19:10	31.3	31.3	31.3	86	27.6	2	5	292	0.00	29.667 
19:15	31.2	31.2	31.2	85	27.2	1	4	292	0.00	29.668 
19:20	31.2	31.2	31.2	85	27.2	2	5	292	0.00	29.668 
19:25	31.2	31.2	31.2	84	26.9	1	4	292	0.00	29.668 
19:30	31.2	31.2	31.2	84	26.9	2	3	292	0.00	29.667 
19:35	31.2	31.2	31.2	84	26.9	1	4	292	0.00	29.667 
19:40	31.2	31.2	31.2	83	26.6	1	5	292	0.00	29.667 
19:45	31.2	31.2	31.2	83	26.6	1	4	292	0.00	29.669 
19:50	31.2	31.2	31.2	82	26.4	1	4	270	0.00	29.669 
19:55	31.0	31.0	31.0	81	25.9	2	5	270	0.00	29.669 
20:00	31.0	31.0	31.0	81	25.9	1	3	270	0.00	29.669 
20:05	31.0	31.0	31.0	81	25.9	1	3	270	0.00	29.669 
20:10	31.0	31.0	31.0	82	26.2	2	5	270	0.00	29.669 
20:15	31.0	31.0	31.0	82	26.2	0	3	270	0.00	29.667 
20:20	31.0	31.0	31.0	83	26.5	2	4	270	0.00	29.667 
20:25	30.9	30.9	30.9	83	26.4	1	4	270	0.00	29.667 
20:30	30.7	30.7	30.7	84	26.4	2	3	270	0.00	29.664 
20:35	30.7	30.7	30.7	84	26.4	1	4	315	0.00	29.664 
20:40	30.6	30.6	30.6	84	26.4	2	4	315	0.00	29.664 
20:45	30.6	30.6	30.6	84	26.4	1	3	292	0.00	29.667 
20:50	30.4	30.4	30.4	84	26.2	1	3	292	0.00	29.667 
20:55	30.3	30.3	30.3	84	26.1	1	3	292	0.00	29.667 
21:00	30.1	30.1	30.1	84	25.9	1	4	292	0.00	29.668 
21:05	30.0	30.0	30.0	84	25.8	1	3	270	0.00	29.668 
21:10	30.0	30.0	30.0	84	25.8	1	3	270	0.00	29.668 
21:15	29.8	29.8	29.8	84	25.6	1	4	270	0.00	29.667 
21:20	29.8	29.8	29.8	84	25.6	1	4	315	0.00	29.667 
21:25	29.7	29.7	29.7	84	25.5	2	4	270	0.00	29.667 
21:30	29.7	29.7	29.7	84	25.5	1	3	270	0.00	29.669 
21:35	29.7	29.7	29.7	84	25.5	1	3	270	0.00	29.669 
21:40	29.5	29.5	29.5	83	25.0	1	3	270	0.00	29.669 
21:45	29.5	29.5	29.5	83	25.0	1	3	270	0.00	29.668 
21:50	29.4	29.4	29.4	83	24.9	1	3	270	0.00	29.668 
21:55	29.3	29.3	29.3	84	25.1	1	3	270	0.00	29.668 
22:00	29.1	29.1	29.1	84	24.9	1	3	270	0.00	29.669 
22:05	29.1	29.1	29.1	84	24.9	0	2	270	0.00	29.669 
22:10	29.1	29.1	29.1	84	24.9	1	4	270	0.00	29.669 
22:15	29.0	29.0	29.0	83	24.5	1	3	270	0.00	29.669 
22:20	29.0	29.0	29.0	83	24.5	2	4	270	0.00	29.669 
22:25	29.0	29.0	29.0	83	24.5	1	4	270	0.00	29.669 
22:30	29.0	29.0	29.0	83	24.5	1	4	270	0.00	29.664 
22:35	28.8	28.8	28.8	83	24.3	1	3	270	0.00	29.664 
22:40	28.8	28.8	28.8	83	24.3	1	3	270	0.00	29.664 
22:45	28.8	28.8	28.8	82	24.0	1	4	270	0.00	29.661 
22:50	28.7	28.7	28.7	82	23.9	1	3	270	0.00	29.661 
22:55	28.7	28.7	28.7	82	23.9	1	2	270	0.00	29.661 
23:00	28.5	28.5	28.5	82	23.7	1	3	270	0.00	29.659 
23:05	28.5	28.5	28.5	81	23.4	1	3	270	0.00	29.659 
23:10	28.5	28.5	28.5	81	23.4	0	2	270	0.00	29.659 
23:15	28.4	28.4	28.4	81	23.3	1	3	270	0.00	29.656 
23:20	28.2	28.2	28.2	81	23.1	2	3	270	0.00	29.656 
23:25	28.2	28.2	28.2	81	23.1	1	5	315	0.00	29.656 
23:30	28.2	28.2	28.2	81	23.1	1	4	315	0.00	29.654 
23:35	28.1	28.1	28.1	81	23.0	2	3	270	0.00	29.654 
23:40	27.9	27.9	27.9	81	22.8	2	4	270	0.00	29.654 
23:45	27.8	27.8	27.8	82	23.0	1	4	270	0.00	29.651 
23:50	27.8	27.8	27.8	82	23.0	1	3	270	0.00	29.651 
23:55	27.8	27.8	27.8	82	23.0	2	3	270	0.00	29.651 

CoCoRaHS
IN-AL-39
A2 Web Hosting
Creative Commons License
GoDaddy
search engine by freefind advanced

loaded 2018-11-21 00:37:16 • last modified 2010-11-18 10:43:29
Privacy PolicyDisclaimer
• wx.awcolley.com is powered by PmWiki v.2002016 •
• all content (unless otherwise noted) © 2018 A W Colley